Aviation Digital Data Service (ADDS)

Output produced by TAFs form (0725 UTC 16 September 2014)
found at http://aviationweather.gov/adds/tafs/
 
KAEG 160549Z 1606/1706 19007KT P6SM VCSH SCT090 OVC110 
     TEMPO 1606/1608 -DZ SCT060 BKN090 
     FM161000 12007KT P6SM FEW050 BKN110 
     FM162100 17007KT P6SM SCT060 BKN120 
     FM170200 21007KT P6SM VCSH BKN100